sensor_id;sensor_type;location;lat;lon;timestamp;P1;durP1;ratioP1;P2;durP2;ratioP2
15408;SDS011;7803;48.130;13.788;2022-12-18T20:02:11;15.55;;;13.98;;
15408;SDS011;7803;48.130;13.788;2022-12-18T20:05:15;15.55;;;13.98;;
15408;SDS011;7803;48.130;13.788;2022-12-18T20:08:24;16.10;;;14.40;;
15408;SDS011;7803;48.130;13.788;2022-12-18T20:11:27;16.27;;;14.57;;
15408;SDS011;7803;48.130;13.788;2022-12-18T20:14:32;16.33;;;14.63;;
15408;SDS011;7803;48.130;13.788;2022-12-18T20:17:36;17.30;;;14.75;;
15408;SDS011;7803;48.130;13.788;2022-12-18T20:20:39;16.10;;;14.38;;
15408;SDS011;7803;48.130;13.788;2022-12-18T20:23:42;17.20;;;15.20;;
15408;SDS011;7803;48.130;13.788;2022-12-18T20:26:45;17.10;;;15.30;;
15408;SDS011;7803;48.130;13.788;2022-12-18T20:29:48;17.08;;;14.98;;
15408;SDS011;7803;48.130;13.788;2022-12-18T20:32:52;16.02;;;14.25;;
15408;SDS011;7803;48.130;13.788;2022-12-18T20:35:58;17.02;;;14.70;;
15408;SDS011;7803;48.130;13.788;2022-12-18T20:39:04;16.52;;;14.70;;
15408;SDS011;7803;48.130;13.788;2022-12-18T20:42:07;16.48;;;14.70;;
15408;SDS011;7803;48.130;13.788;2022-12-18T20:45:10;17.80;;;15.05;;
15408;SDS011;7803;48.130;13.788;2022-12-18T20:48:14;17.65;;;15.75;;
15408;SDS011;7803;48.130;13.788;2022-12-18T20:51:17;16.55;;;14.68;;
15408;SDS011;7803;48.130;13.788;2022-12-18T20:54:23;17.60;;;15.60;;
15408;SDS011;7803;48.130;13.788;2022-12-18T20:57:26;17.10;;;15.32;;
15408;SDS011;7803;48.130;13.788;2022-12-18T21:00:28;17.20;;;15.25;;
15408;SDS011;7803;48.130;13.788;2022-12-18T21:03:32;18.27;;;15.77;;
15408;SDS011;7803;48.130;13.788;2022-12-18T21:06:34;17.75;;;15.85;;
15408;SDS011;7803;48.130;13.788;2022-12-18T21:09:37;18.05;;;15.60;;
15408;SDS011;7803;48.130;13.788;2022-12-18T21:12:39;17.90;;;16.05;;
15408;SDS011;7803;48.130;13.788;2022-12-18T21:15:46;17.60;;;15.80;;
15408;SDS011;7803;48.130;13.788;2022-12-18T21:18:49;17.65;;;15.93;;
15408;SDS011;7803;48.130;13.788;2022-12-18T21:21:52;18.80;;;16.90;;
15408;SDS011;7803;48.130;13.788;2022-12-18T21:24:55;18.27;;;16.40;;
15408;SDS011;7803;48.130;13.788;2022-12-18T21:27:57;18.88;;;16.98;;
15408;SDS011;7803;48.130;13.788;2022-12-18T21:30:59;19.52;;;17.60;;
15408;SDS011;7803;48.130;13.788;2022-12-18T21:34:03;18.67;;;16.77;;
15408;SDS011;7803;48.130;13.788;2022-12-18T21:37:06;19.00;;;17.10;;
15408;SDS011;7803;48.130;13.788;2022-12-18T21:40:09;19.15;;;17.25;;
15408;SDS011;7803;48.130;13.788;2022-12-18T21:43:11;19.65;;;17.65;;
15408;SDS011;7803;48.130;13.788;2022-12-18T21:46:31;19.27;;;17.30;;
15408;SDS011;7803;48.130;13.788;2022-12-18T21:49:35;19.70;;;17.63;;
15408;SDS011;7803;48.130;13.788;2022-12-18T21:52:37;20.17;;;18.08;;
15408;SDS011;7803;48.130;13.788;2022-12-18T21:55:39;19.77;;;17.77;;
15408;SDS011;7803;48.130;13.788;2022-12-18T21:58:41;18.05;;;16.25;;
15408;SDS011;7803;48.130;13.788;2022-12-18T22:01:43;18.33;;;16.52;;
15408;SDS011;7803;48.130;13.788;2022-12-18T22:04:46;18.77;;;16.88;;
15408;SDS011;7803;48.130;13.788;2022-12-18T22:07:48;18.05;;;16.25;;
15408;SDS011;7803;48.130;13.788;2022-12-18T22:10:50;19.13;;;17.23;;
15408;SDS011;7803;48.130;13.788;2022-12-18T22:13:52;19.15;;;17.30;;
15408;SDS011;7803;48.130;13.788;2022-12-18T22:16:55;20.60;;;18.50;;
15408;SDS011;7803;48.130;13.788;2022-12-18T22:19:58;19.63;;;17.63;;
15408;SDS011;7803;48.130;13.788;2022-12-18T22:23:00;20.17;;;18.17;;
15408;SDS011;7803;48.130;13.788;2022-12-18T22:26:02;20.30;;;18.30;;
15408;SDS011;7803;48.130;13.788;2022-12-18T22:29:04;21.17;;;18.88;;
15408;SDS011;7803;48.130;13.788;2022-12-18T22:32:24;21.52;;;18.52;;
15408;SDS011;7803;48.130;13.788;2022-12-18T22:35:28;21.75;;;19.60;;
15408;SDS011;7803;48.130;13.788;2022-12-18T22:38:30;20.92;;;18.83;;
15408;SDS011;7803;48.130;13.788;2022-12-18T22:41:32;21.38;;;19.27;;
15408;SDS011;7803;48.130;13.788;2022-12-18T22:44:34;21.35;;;19.35;;
15408;SDS011;7803;48.130;13.788;2022-12-18T22:47:36;21.70;;;19.50;;
15408;SDS011;7803;48.130;13.788;2022-12-18T22:50:40;21.80;;;19.60;;
15408;SDS011;7803;48.130;13.788;2022-12-18T22:53:42;20.80;;;18.70;;
15408;SDS011;7803;48.130;13.788;2022-12-18T22:56:44;19.80;;;17.80;;
15408;SDS011;7803;48.130;13.788;2022-12-18T22:59:46;21.65;;;19.48;;
15408;SDS011;7803;48.130;13.788;2022-12-18T23:02:48;21.52;;;19.38;;
15408;SDS011;7803;48.130;13.788;2022-12-18T23:05:52;21.23;;;19.13;;
15408;SDS011;7803;48.130;13.788;2022-12-18T23:09:01;21.38;;;19.27;;
15408;SDS011;7803;48.130;13.788;2022-12-18T23:12:04;22.20;;;20.00;;
15408;SDS011;7803;48.130;13.788;2022-12-18T23:15:06;22.85;;;20.55;;
15408;SDS011;7803;48.130;13.788;2022-12-18T23:18:08;22.88;;;20.48;;
15408;SDS011;7803;48.130;13.788;2022-12-18T23:21:13;21.98;;;19.83;;
15408;SDS011;7803;48.130;13.788;2022-12-18T23:24:16;23.00;;;20.70;;
15408;SDS011;7803;48.130;13.788;2022-12-18T23:27:17;22.65;;;20.25;;
15408;SDS011;7803;48.130;13.788;2022-12-18T23:30:20;23.55;;;21.05;;
15408;SDS011;7803;48.130;13.788;2022-12-18T23:33:22;21.92;;;19.80;;
15408;SDS011;7803;48.130;13.788;2022-12-18T23:36:26;23.05;;;20.75;;
15408;SDS011;7803;48.130;13.788;2022-12-18T23:39:28;21.80;;;19.63;;
15408;SDS011;7803;48.130;13.788;2022-12-18T23:42:30;22.75;;;20.55;;
15408;SDS011;7803;48.130;13.788;2022-12-18T23:45:35;23.33;;;21.00;;
15408;SDS011;7803;48.130;13.788;2022-12-18T23:48:38;23.17;;;20.83;;
15408;SDS011;7803;48.130;13.788;2022-12-18T23:51:41;23.20;;;20.80;;
15408;SDS011;7803;48.130;13.788;2022-12-18T23:54:44;22.02;;;19.83;;
15408;SDS011;7803;48.130;13.788;2022-12-18T23:57:46;22.50;;;20.20;;
